< < Back
Terminal Aerodrome Forecast


Current Version              Previous Versions:   1  2  3  4  5  6  7  8  9  

Terminal Aerodrome Forecast

179
FTUS42 KTAE 011700
TAFABY
TAF
KABY 011723Z 0118/0218 09004KT P6SM BKN045
     FM012100 12003KT P6SM SCT045
     FM020900 09002KT 4SM BR SKC
     FM021300 12004KT P6SM SKC=

Latest METAR

656
SAUS70 KWBC 020200 RRA
MTRABY
METAR KABY 020153Z 00000KT 10SM CLR 21/19 A3002 RMK AO2 SLP163
T02110194


USA.gov is the U.S. government's official web portal to all federal, state and local government web resources and services.